createdAt,value
2023-07-07T00:01:09.060Z,15.80
2023-07-07T00:03:42.072Z,15.70
2023-07-07T00:06:15.180Z,15.70
2023-07-07T00:08:48.205Z,15.70
2023-07-07T00:11:24.166Z,15.60
2023-07-07T00:13:58.941Z,15.60
2023-07-07T00:16:32.184Z,15.60
2023-07-07T00:19:10.743Z,15.60
2023-07-07T00:21:44.244Z,15.50
2023-07-07T00:24:17.225Z,15.50
2023-07-07T00:26:50.353Z,15.40
2023-07-07T00:29:23.685Z,15.40
2023-07-07T00:31:56.951Z,15.30
2023-07-07T00:34:30.525Z,15.30
2023-07-07T00:37:03.800Z,15.30
2023-07-07T00:39:36.926Z,15.30
2023-07-07T00:42:11.884Z,15.20
2023-07-07T00:45:06.901Z,15.20
2023-07-07T00:47:46.562Z,15.20
2023-07-07T00:50:23.031Z,15.10
2023-07-07T00:52:56.306Z,15.00
2023-07-07T00:55:35.416Z,15.10
2023-07-07T00:58:15.281Z,15.00
2023-07-07T01:00:59.209Z,14.90
2023-07-07T01:03:49.670Z,14.90
2023-07-07T01:06:28.557Z,14.90
2023-07-07T01:09:07.907Z,14.90
2023-07-07T01:11:40.995Z,14.80
2023-07-07T01:14:18.874Z,14.80
2023-07-07T01:17:07.626Z,14.80
2023-07-07T01:20:03.229Z,14.70
2023-07-07T01:22:55.319Z,14.70
2023-07-07T01:25:56.919Z,14.60
2023-07-07T01:28:50.115Z,14.60
2023-07-07T01:31:34.298Z,14.60
2023-07-07T01:34:08.331Z,14.60
2023-07-07T01:36:42.816Z,14.60
2023-07-07T01:39:15.853Z,14.50
2023-07-07T01:42:01.960Z,14.40
2023-07-07T01:44:41.046Z,14.40
2023-07-07T01:47:14.273Z,14.40
2023-07-07T01:50:07.297Z,14.40
2023-07-07T01:52:55.127Z,14.40
2023-07-07T01:55:33.875Z,14.30
2023-07-07T01:58:09.494Z,14.30
2023-07-07T02:00:44.697Z,14.30
2023-07-07T02:03:18.521Z,14.30
2023-07-07T02:05:51.713Z,14.30
2023-07-07T02:08:24.867Z,14.20
2023-07-07T02:10:59.338Z,14.20
2023-07-07T02:13:37.082Z,14.20
2023-07-07T02:16:10.271Z,14.20
2023-07-07T02:18:50.151Z,14.10
2023-07-07T02:21:23.668Z,14.10
2023-07-07T02:23:56.735Z,14.10
2023-07-07T02:26:29.964Z,14.10
2023-07-07T02:29:03.045Z,14.00
2023-07-07T02:31:36.110Z,14.00
2023-07-07T02:34:09.161Z,14.00
2023-07-07T02:36:42.219Z,13.90
2023-07-07T02:39:15.718Z,13.90
2023-07-07T02:41:49.818Z,13.90
2023-07-07T02:44:23.048Z,13.90
2023-07-07T02:46:56.132Z,13.80
2023-07-07T02:49:29.608Z,13.80
2023-07-07T02:52:03.891Z,13.80
2023-07-07T02:54:37.084Z,13.80
2023-07-07T02:57:10.504Z,13.80
2023-07-07T02:59:43.832Z,13.80
2023-07-07T03:02:17.339Z,13.80
2023-07-07T03:04:52.235Z,13.80
2023-07-07T03:07:25.255Z,13.80
2023-07-07T03:09:59.573Z,13.80
2023-07-07T03:12:32.664Z,13.80
2023-07-07T03:15:06.391Z,13.80
2023-07-07T03:17:44.632Z,13.80
2023-07-07T03:20:19.047Z,13.70
2023-07-07T03:22:53.954Z,13.70
2023-07-07T03:25:28.820Z,13.70
2023-07-07T03:28:02.466Z,13.60
2023-07-07T03:30:42.298Z,13.50
2023-07-07T03:33:21.058Z,13.50
2023-07-07T03:35:55.096Z,13.30
2023-07-07T03:38:28.172Z,13.30
2023-07-07T03:41:01.180Z,13.30
2023-07-07T03:43:38.878Z,13.20
2023-07-07T03:46:13.753Z,13.20
2023-07-07T03:48:49.109Z,13.20
2023-07-07T03:51:24.760Z,13.30
2023-07-07T03:53:58.227Z,13.30
2023-07-07T03:56:31.714Z,13.20
2023-07-07T03:59:05.064Z,13.20
2023-07-07T04:01:38.575Z,13.30
2023-07-07T04:04:11.775Z,13.30
2023-07-07T04:06:44.993Z,13.30
2023-07-07T04:09:17.911Z,13.30
2023-07-07T04:11:52.222Z,13.40
2023-07-07T04:14:29.553Z,13.40
2023-07-07T04:17:02.714Z,13.40
2023-07-07T04:19:35.988Z,13.40
2023-07-07T04:22:09.058Z,13.50
2023-07-07T04:24:42.364Z,13.50
2023-07-07T04:27:17.123Z,13.50
2023-07-07T04:29:50.128Z,13.50
2023-07-07T04:32:23.246Z,13.50
2023-07-07T04:34:56.465Z,13.50
2023-07-07T04:37:29.928Z,13.50
2023-07-07T04:40:03.104Z,13.50
2023-07-07T04:42:36.061Z,13.50
2023-07-07T04:45:09.541Z,13.50
2023-07-07T04:47:42.624Z,13.60
2023-07-07T04:50:15.659Z,13.60
2023-07-07T04:52:49.337Z,13.70
2023-07-07T04:55:22.866Z,13.80
2023-07-07T04:57:56.107Z,13.80
2023-07-07T05:00:29.078Z,13.90
2023-07-07T05:03:02.140Z,14.00
2023-07-07T05:05:38.329Z,14.10
2023-07-07T05:08:11.869Z,14.20
2023-07-07T05:10:49.113Z,14.30
2023-07-07T05:13:22.305Z,14.40
2023-07-07T05:16:05.883Z,14.40
2023-07-07T05:18:40.248Z,14.60
2023-07-07T05:21:15.168Z,14.70
2023-07-07T05:23:48.375Z,14.80
2023-07-07T05:26:23.251Z,14.90
2023-07-07T05:29:02.451Z,15.00
2023-07-07T05:31:36.089Z,15.20
2023-07-07T05:34:09.072Z,15.30
2023-07-07T05:36:42.282Z,15.50
2023-07-07T05:39:15.272Z,15.70
2023-07-07T05:41:48.299Z,15.90
2023-07-07T05:44:21.321Z,16.10
2023-07-07T05:46:54.412Z,16.40
2023-07-07T05:49:27.600Z,16.60
2023-07-07T05:52:00.772Z,16.90
2023-07-07T05:54:34.043Z,17.10
2023-07-07T05:57:07.494Z,17.30
2023-07-07T05:59:40.484Z,17.50
2023-07-07T06:02:13.496Z,17.80
2023-07-07T06:04:46.531Z,18.00
2023-07-07T06:07:19.514Z,18.20
2023-07-07T06:09:59.297Z,18.50
2023-07-07T06:12:34.085Z,18.60
2023-07-07T06:15:09.096Z,18.90
2023-07-07T06:17:42.279Z,19.10
2023-07-07T06:20:16.232Z,19.30
2023-07-07T06:22:50.097Z,19.40
2023-07-07T06:25:23.174Z,19.60
2023-07-07T06:27:56.269Z,19.80
2023-07-07T06:30:30.239Z,20.10
2023-07-07T06:33:04.355Z,20.30
2023-07-07T06:35:38.243Z,20.40
2023-07-07T06:38:11.729Z,20.60
2023-07-07T06:40:46.942Z,21.00
2023-07-07T06:43:20.886Z,21.10
2023-07-07T06:45:57.478Z,21.10
2023-07-07T06:48:30.503Z,21.30
2023-07-07T06:53:39.861Z,21.60
2023-07-07T06:56:12.809Z,21.90
2023-07-07T06:58:47.632Z,22.00
2023-07-07T07:01:20.752Z,22.20
2023-07-07T07:03:53.892Z,22.50
2023-07-07T07:06:27.500Z,22.60
2023-07-07T07:09:00.582Z,22.90
2023-07-07T07:11:33.761Z,22.90
2023-07-07T07:14:06.853Z,22.80
2023-07-07T07:16:40.928Z,22.70
2023-07-07T07:19:13.984Z,22.70
2023-07-07T07:21:47.266Z,22.70
2023-07-07T07:24:20.860Z,22.90
2023-07-07T07:26:53.784Z,23.00
2023-07-07T07:29:26.821Z,23.30
2023-07-07T07:31:59.926Z,23.30
2023-07-07T07:34:36.691Z,23.40
2023-07-07T07:37:10.682Z,23.30
2023-07-07T07:39:43.863Z,23.20
2023-07-07T07:42:16.898Z,23.40
2023-07-07T07:44:50.073Z,23.50
2023-07-07T07:47:23.964Z,23.70
2023-07-07T07:49:58.045Z,23.90
2023-07-07T07:52:31.049Z,24.10
2023-07-07T07:55:04.669Z,24.20
2023-07-07T08:00:11.949Z,24.20
2023-07-07T08:02:49.790Z,24.10
2023-07-07T08:05:22.944Z,24.10
2023-07-07T08:07:56.005Z,24.10
2023-07-07T08:10:29.111Z,24.20
2023-07-07T08:13:02.303Z,24.30
2023-07-07T08:15:35.305Z,24.40
2023-07-07T08:18:08.473Z,24.40
2023-07-07T08:20:41.813Z,24.50
2023-07-07T08:23:14.848Z,24.70
2023-07-07T08:26:26.023Z,24.70
2023-07-07T08:28:48.720Z,24.70
2023-07-07T08:31:22.230Z,24.70
2023-07-07T08:34:00.914Z,24.80
2023-07-07T08:36:35.666Z,25.00
2023-07-07T08:39:23.478Z,25.10
2023-07-07T08:42:04.148Z,25.10
2023-07-07T08:44:37.610Z,25.30
2023-07-07T08:47:25.824Z,25.60
2023-07-07T08:50:15.703Z,25.70
2023-07-07T08:53:17.316Z,25.80
2023-07-07T08:56:29.659Z,25.70
2023-07-07T08:59:21.163Z,25.70
2023-07-07T09:02:31.832Z,25.70
2023-07-07T09:05:58.799Z,25.70
2023-07-07T09:08:57.143Z,25.70
2023-07-07T09:11:47.381Z,25.80
2023-07-07T09:14:21.811Z,25.90
2023-07-07T09:16:59.205Z,26.10
2023-07-07T09:19:39.087Z,26.30
2023-07-07T09:22:24.809Z,26.40
2023-07-07T09:25:20.850Z,26.40
2023-07-07T09:28:02.161Z,26.50
2023-07-07T09:30:47.034Z,26.60
2023-07-07T09:33:24.374Z,26.50
2023-07-07T09:36:16.301Z,26.50
2023-07-07T09:39:12.970Z,26.70
2023-07-07T09:42:11.193Z,26.70
2023-07-07T09:44:56.188Z,26.90
2023-07-07T09:47:39.622Z,27.00
2023-07-07T09:50:38.039Z,27.10
2023-07-07T09:53:28.773Z,27.20
2023-07-07T09:56:10.278Z,27.20
2023-07-07T09:59:15.449Z,27.20
2023-07-07T10:01:51.799Z,27.10
2023-07-07T10:04:28.188Z,27.40
2023-07-07T10:07:07.612Z,27.50
2023-07-07T10:09:40.590Z,27.70
2023-07-07T10:12:24.138Z,28.00
2023-07-07T10:15:01.008Z,28.20
2023-07-07T10:18:04.076Z,28.50
2023-07-07T10:20:37.111Z,28.50
2023-07-07T10:23:15.204Z,28.50
2023-07-07T10:25:48.536Z,28.60
2023-07-07T10:28:22.498Z,28.50
2023-07-07T10:30:57.184Z,28.40
2023-07-07T10:33:31.094Z,28.40
2023-07-07T10:36:25.106Z,28.30
2023-07-07T10:38:59.145Z,28.40
2023-07-07T10:41:32.456Z,28.40
2023-07-07T10:44:05.643Z,28.50
2023-07-07T10:46:40.073Z,28.60
2023-07-07T10:49:18.547Z,28.50
2023-07-07T10:52:16.264Z,28.50
2023-07-07T10:55:02.867Z,28.70
2023-07-07T10:58:11.285Z,28.70
2023-07-07T11:01:00.240Z,28.90
2023-07-07T11:04:01.925Z,29.10
2023-07-07T11:06:53.733Z,29.10
2023-07-07T11:09:45.875Z,29.10
2023-07-07T11:12:34.468Z,29.10
2023-07-07T11:15:18.349Z,29.20
2023-07-07T11:18:00.942Z,29.40
2023-07-07T11:20:39.737Z,29.30
2023-07-07T11:23:37.025Z,29.40
2023-07-07T11:26:28.261Z,29.40
2023-07-07T11:29:45.341Z,29.40
2023-07-07T11:32:25.488Z,29.50
2023-07-07T11:37:57.004Z,30.00
2023-07-07T11:43:48.054Z,30.30
2023-07-07T11:46:31.905Z,30.50
2023-07-07T11:49:18.565Z,30.60
2023-07-07T11:52:23.333Z,30.80
2023-07-07T11:55:22.188Z,30.90
2023-07-07T11:58:30.630Z,31.00
2023-07-07T12:01:37.600Z,31.00
2023-07-07T12:04:40.771Z,31.00
2023-07-07T12:07:27.798Z,31.10
2023-07-07T12:10:10.611Z,31.00
2023-07-07T12:13:00.997Z,31.00
2023-07-07T12:15:48.219Z,30.70
2023-07-07T12:18:33.333Z,30.30
2023-07-07T12:21:15.768Z,30.00
2023-07-07T12:24:05.968Z,30.00
2023-07-07T12:26:46.004Z,30.00
2023-07-07T12:29:19.582Z,30.10
2023-07-07T12:31:52.801Z,30.20
2023-07-07T12:34:41.595Z,30.20
2023-07-07T12:37:23.240Z,30.10
2023-07-07T12:40:02.582Z,29.80
2023-07-07T12:42:36.626Z,29.60
2023-07-07T12:45:12.898Z,29.40
2023-07-07T12:47:51.230Z,29.40
2023-07-07T12:50:40.176Z,29.30
2023-07-07T12:53:25.428Z,29.10
2023-07-07T12:56:14.452Z,29.10
2023-07-07T12:58:53.895Z,29.10
2023-07-07T13:01:31.764Z,29.10
2023-07-07T13:04:10.947Z,29.00
2023-07-07T13:06:52.825Z,29.00
2023-07-07T13:09:27.943Z,28.90
2023-07-07T13:12:02.129Z,28.80
2023-07-07T13:14:41.485Z,28.80
2023-07-07T13:17:24.015Z,28.70
2023-07-07T13:19:59.672Z,28.70
2023-07-07T13:23:07.045Z,28.60
2023-07-07T13:25:40.083Z,28.50
2023-07-07T13:28:14.975Z,28.50
2023-07-07T13:30:53.377Z,28.50
2023-07-07T13:33:29.581Z,28.40
2023-07-07T13:36:03.355Z,28.50
2023-07-07T13:38:42.219Z,28.40
2023-07-07T13:41:17.693Z,28.40
2023-07-07T13:43:54.736Z,28.40
2023-07-07T13:46:34.912Z,28.40
2023-07-07T13:49:16.638Z,28.30
2023-07-07T13:51:55.568Z,28.30
2023-07-07T13:54:28.583Z,28.40
2023-07-07T13:57:06.151Z,28.40
2023-07-07T13:59:40.699Z,28.40
2023-07-07T14:02:17.640Z,28.50
2023-07-07T14:05:13.937Z,28.50
2023-07-07T14:07:48.256Z,28.60
2023-07-07T14:10:36.322Z,28.60
2023-07-07T14:13:19.637Z,28.70
2023-07-07T14:16:03.406Z,28.70
2023-07-07T14:18:48.917Z,28.80
2023-07-07T14:21:23.910Z,28.80
2023-07-07T14:23:58.844Z,28.90
2023-07-07T14:26:32.264Z,28.90
2023-07-07T14:29:07.188Z,28.90
2023-07-07T14:31:40.878Z,28.90
2023-07-07T14:34:15.149Z,28.90
2023-07-07T14:36:49.087Z,28.90
2023-07-07T14:39:34.870Z,28.90
2023-07-07T14:42:28.767Z,28.80
2023-07-07T14:45:01.783Z,28.90
2023-07-07T14:47:39.211Z,28.80
2023-07-07T14:50:14.827Z,28.80
2023-07-07T14:52:50.723Z,28.80
2023-07-07T14:55:29.548Z,28.80
2023-07-07T14:58:04.742Z,28.70
2023-07-07T15:00:42.297Z,28.70
2023-07-07T15:03:27.505Z,28.70
2023-07-07T15:06:11.226Z,28.60
2023-07-07T15:08:50.068Z,28.60
2023-07-07T15:11:36.053Z,28.70
2023-07-07T15:14:13.406Z,28.60
2023-07-07T15:16:47.698Z,28.50
2023-07-07T15:19:23.212Z,28.50
2023-07-07T15:21:56.398Z,28.40
2023-07-07T15:24:29.366Z,28.40
2023-07-07T15:27:02.437Z,28.30
2023-07-07T15:29:35.668Z,28.20
2023-07-07T15:32:13.466Z,28.20
2023-07-07T15:34:46.580Z,28.20
2023-07-07T15:37:19.585Z,28.10
2023-07-07T15:39:52.564Z,28.10
2023-07-07T15:42:26.131Z,28.10
2023-07-07T15:44:59.144Z,28.10
2023-07-07T15:47:32.326Z,28.00
2023-07-07T15:50:16.261Z,28.00
2023-07-07T15:52:49.346Z,27.90
2023-07-07T15:55:22.381Z,27.90
2023-07-07T15:57:55.433Z,28.00
2023-07-07T16:00:34.530Z,28.00
2023-07-07T16:03:09.223Z,28.00
2023-07-07T16:05:43.102Z,28.10
2023-07-07T16:08:17.315Z,28.10
2023-07-07T16:10:50.264Z,28.20
2023-07-07T16:13:23.351Z,28.20
2023-07-07T16:15:56.735Z,28.20
2023-07-07T16:18:30.098Z,28.30
2023-07-07T16:21:04.357Z,28.30
2023-07-07T16:23:37.331Z,28.30
2023-07-07T16:26:15.807Z,28.40
2023-07-07T16:28:48.854Z,28.40
2023-07-07T16:31:26.054Z,28.50
2023-07-07T16:33:59.064Z,28.50
2023-07-07T16:36:33.108Z,28.50
2023-07-07T16:39:16.415Z,28.50
2023-07-07T16:41:49.497Z,28.60
2023-07-07T16:44:22.627Z,28.60
2023-07-07T16:46:55.573Z,28.70
2023-07-07T16:49:28.582Z,28.80
2023-07-07T16:52:01.544Z,28.90
2023-07-07T16:54:35.124Z,28.90
2023-07-07T16:57:20.373Z,28.90
2023-07-07T16:59:53.409Z,28.80
2023-07-07T17:02:26.396Z,28.80
2023-07-07T17:04:59.650Z,28.70
2023-07-07T17:07:32.605Z,28.70
2023-07-07T17:10:35.385Z,28.70
2023-07-07T17:13:08.569Z,28.60
2023-07-07T17:15:41.703Z,28.60
2023-07-07T17:18:15.365Z,28.50
2023-07-07T17:20:48.415Z,28.50
2023-07-07T17:23:21.427Z,28.40
2023-07-07T17:25:54.615Z,28.40
2023-07-07T17:28:29.912Z,28.40
2023-07-07T17:31:04.077Z,28.40
2023-07-07T17:33:37.126Z,28.40
2023-07-07T17:36:30.100Z,28.40
2023-07-07T17:39:05.506Z,28.40
2023-07-07T17:41:38.524Z,28.30
2023-07-07T17:44:11.792Z,28.30
2023-07-07T17:46:45.002Z,28.20
2023-07-07T17:49:22.010Z,28.20
2023-07-07T17:51:55.533Z,28.10
2023-07-07T17:54:28.568Z,28.10
2023-07-07T17:57:01.578Z,28.00
2023-07-07T17:59:34.607Z,28.00
2023-07-07T18:02:11.254Z,27.90
2023-07-07T18:04:50.499Z,27.80
2023-07-07T18:07:23.688Z,27.80
2023-07-07T18:09:56.726Z,27.70
2023-07-07T18:12:30.069Z,27.70
2023-07-07T18:15:03.084Z,27.60
2023-07-07T18:17:51.779Z,27.60
2023-07-07T18:21:24.713Z,27.50
2023-07-07T18:23:31.211Z,27.50
2023-07-07T18:26:04.223Z,27.50
2023-07-07T18:28:37.280Z,27.40
2023-07-07T18:31:12.042Z,27.30
2023-07-07T18:33:45.091Z,27.20
2023-07-07T18:38:54.295Z,27.10
2023-07-07T18:41:28.024Z,26.90
2023-07-07T18:44:03.085Z,26.80
2023-07-07T18:46:36.186Z,26.70
2023-07-07T18:49:15.562Z,26.60
2023-07-07T18:51:48.648Z,26.50
2023-07-07T18:54:21.664Z,26.40
2023-07-07T18:56:54.728Z,26.30
2023-07-07T18:59:27.759Z,26.30
2023-07-07T19:02:00.858Z,26.10
2023-07-07T19:04:33.937Z,26.10
2023-07-07T19:07:09.090Z,26.00
2023-07-07T19:09:42.661Z,25.90
2023-07-07T19:12:16.678Z,25.80
2023-07-07T19:14:49.735Z,25.70
2023-07-07T19:17:22.780Z,25.60
2023-07-07T19:19:55.910Z,25.50
2023-07-07T19:22:28.960Z,25.40
2023-07-07T19:25:02.314Z,25.30
2023-07-07T19:27:36.193Z,25.20
2023-07-07T19:30:12.665Z,25.10
2023-07-07T19:32:46.173Z,25.10
2023-07-07T19:35:19.375Z,25.00
2023-07-07T19:37:52.324Z,24.90
2023-07-07T19:40:33.787Z,24.90
2023-07-07T19:43:08.286Z,24.80
2023-07-07T19:45:41.406Z,24.80
2023-07-07T19:48:18.662Z,24.80
2023-07-07T19:51:00.040Z,24.70
2023-07-07T19:53:33.039Z,24.70
2023-07-07T19:56:06.073Z,24.60
2023-07-07T19:58:39.036Z,24.50
2023-07-07T20:01:13.843Z,24.50
2023-07-07T20:03:47.734Z,24.50
2023-07-07T20:06:30.007Z,24.40
2023-07-07T20:09:03.950Z,24.40
2023-07-07T20:11:36.969Z,24.30
2023-07-07T20:14:10.012Z,24.30
2023-07-07T20:16:50.394Z,24.30
2023-07-07T20:19:23.623Z,24.20
2023-07-07T20:21:56.633Z,24.20
2023-07-07T20:24:29.609Z,24.10
2023-07-07T20:27:04.427Z,24.10
2023-07-07T20:29:37.474Z,24.00
2023-07-07T20:32:14.985Z,23.90
2023-07-07T20:34:49.626Z,23.80
2023-07-07T20:37:22.671Z,23.80
2023-07-07T20:39:55.615Z,23.70
2023-07-07T20:42:28.644Z,23.60
2023-07-07T20:45:02.779Z,23.60
2023-07-07T20:47:35.802Z,23.50
2023-07-07T20:50:19.123Z,23.50
2023-07-07T20:52:52.770Z,23.40
2023-07-07T20:55:25.778Z,23.40
2023-07-07T20:57:58.831Z,23.40
2023-07-07T21:00:36.276Z,23.30
2023-07-07T21:03:09.462Z,23.20
2023-07-07T21:05:42.701Z,23.20
2023-07-07T21:08:18.093Z,23.10
2023-07-07T21:10:51.038Z,23.00
2023-07-07T21:13:24.294Z,23.00
2023-07-07T21:15:58.642Z,22.90
2023-07-07T21:18:31.713Z,22.80
2023-07-07T21:21:06.065Z,22.70
2023-07-07T21:23:39.773Z,22.60
2023-07-07T21:26:27.049Z,22.60
2023-07-07T21:29:00.919Z,22.50
2023-07-07T21:31:37.822Z,22.50
2023-07-07T21:34:10.950Z,22.50
2023-07-07T21:36:43.905Z,22.50
2023-07-07T21:39:27.724Z,22.50
2023-07-07T21:42:11.590Z,22.40
2023-07-07T21:44:45.742Z,22.40
2023-07-07T21:47:19.842Z,22.40
2023-07-07T21:49:53.206Z,22.30
2023-07-07T21:52:26.169Z,22.20
2023-07-07T21:54:59.185Z,22.20
2023-07-07T21:57:45.032Z,22.10
2023-07-07T22:00:25.477Z,22.00
2023-07-07T22:03:01.224Z,21.90
2023-07-07T22:05:34.190Z,21.90
2023-07-07T22:08:19.324Z,21.80
2023-07-07T22:11:00.251Z,21.80
2023-07-07T22:13:33.592Z,21.80
2023-07-07T22:16:12.181Z,21.70
2023-07-07T22:18:55.120Z,21.70
2023-07-07T22:21:29.042Z,21.70
2023-07-07T22:24:02.017Z,21.60
2023-07-07T22:26:35.504Z,21.60
2023-07-07T22:29:14.955Z,21.50
2023-07-07T22:31:47.923Z,21.50
2023-07-07T22:34:21.244Z,21.50
2023-07-07T22:36:54.166Z,21.50
2023-07-07T22:39:27.328Z,21.40
2023-07-07T22:42:00.284Z,21.40
2023-07-07T22:44:33.336Z,21.40
2023-07-07T22:47:06.478Z,21.30
2023-07-07T22:49:40.670Z,21.20
2023-07-07T22:52:13.667Z,21.20
2023-07-07T22:54:46.638Z,21.10
2023-07-07T22:57:19.722Z,21.00
2023-07-07T22:59:52.687Z,21.00
2023-07-07T23:02:25.732Z,21.00
2023-07-07T23:04:58.780Z,21.00
2023-07-07T23:07:31.787Z,20.90
2023-07-07T23:10:05.386Z,20.80
2023-07-07T23:12:38.347Z,20.80
2023-07-07T23:15:13.113Z,20.70
2023-07-07T23:17:46.730Z,20.60
2023-07-07T23:20:26.284Z,20.60
2023-07-07T23:22:59.350Z,20.60
2023-07-07T23:25:33.623Z,20.60
2023-07-07T23:28:11.192Z,20.50
2023-07-07T23:31:05.619Z,20.40
2023-07-07T23:33:39.261Z,20.40
2023-07-07T23:36:21.617Z,20.40
2023-07-07T23:38:54.536Z,20.30
2023-07-07T23:41:28.533Z,20.30
2023-07-07T23:44:01.512Z,20.30
2023-07-07T23:46:35.706Z,20.20
2023-07-07T23:49:17.345Z,20.20
2023-07-07T23:51:50.345Z,20.10
2023-07-07T23:54:24.439Z,20.10
2023-07-07T23:56:58.327Z,20.10
2023-07-07T23:59:31.280Z,20.10
